Pagina principale
METAR-TAF:

METAR-TAF

Aeroporti :

Aeroporto di Treviso-Istrana

Treviso, Italia

latitudine: 45-41N, longitudine: 012-06E, altezza: 45 m

Osservazione

Il bollettino è stato emesso 36 minuti fa, alle 10:55 UTC
Vento 3 kt da est
Temperature 13°C
Umidità 51%
Pressione 1008 hPa
Visibilità 10 km o più
Nubi sparse ad un'altezza di 2500 ft

METAR: LIPS 251055Z 09003KT 9999 SCT025 13/03 Q1008 RMK SCT VIS MIN 9999 WIND THR26 02004KT WIND THR08 07003KT BLU

Ora: 13:31 (11:31 UTC)

Previsione

Il bollettino è stato emesso 3 ore e 31 minuti fa, alle 08:00 UTC
Previsione valida dal 25 alle 09 UTC al 25 alle 18 UTC
Vento 5 kt da est
Visibilità 10 km o più
Nubi sparse ad un'altezza di 2000 ft

TAF: LIPS 250800Z 2509/2518 08005KT 9999 SCT020

Osservazioni e previsioni meteorologiche di più di 4000 aeroporti (messaggi METAR e TAF).

Le stazioni disponibili sono rappresentate dai dischi gialli e rossi sulla carta.

Puntare il mouse per vedere il nome della stazione.

Clicca sopra per visualizzare le osservazioni e previsioni meteorologiche.

Per cambiare la mappa : fare clic sui pulsanti verdi con una croce nera per ingrandire, il pulsante verde con un trattino per diminuire, o sulla freccia verde per le mappe adiacenti.


METAR-TAF: